CheckWX is a tool to help pilots better visualize weather data.  It is not intended as a substitute for an official pre-flight weather briefing.

22:55:44 UTC

KFFT METAR
Capital City Airport
Frankfort, Kentucky, USA
Current

1 hour ago

KFFT 222153Z AUTO 22007KT 10SM OVC070 29/18 A3001 RMK AO2 SLP155 T02890183
Observed
May-22 @ 21:53 UTC
Wind
  • 220° at 7 KTS
Visibility
10 SM
Flight Rules
VFR
Cloud Levels
  • Overcast at 7,000' AGL
Temperature
29°C / 84°F
Dewpoint
18°C / 64°F
Heat Index
29°C / 85°F
Humidity
51%
Altimeter
30.01" Hg
Pressure
1016.22 hPa
Previous

2 hours ago

KFFT 222053Z AUTO 19006KT 10SM FEW055 OVC070 29/18 A3000 RMK AO2 SLP152 T02890183 58002
Observed
May-22 @ 20:53 UTC
Wind
  • 190° at 6 KTS
Visibility
10 SM
Flight Rules
VFR
Cloud Levels
  • Few at 5,500' AGL
  • Overcast at 7,000' AGL
Temperature
29°C / 84°F
Dewpoint
18°C / 64°F
Heat Index
29°C / 85°F
Humidity
51%
Altimeter
30" Hg
Pressure
1015.92 hPa
Previous

3 hours ago

KFFT 221953Z AUTO 19011KT 10SM FEW075 29/18 A3000 RMK AO2 SLP152 T02940183
Observed
May-22 @ 19:53 UTC
Wind
  • 190° at 11 KTS
Visibility
10 SM
Flight Rules
VFR
Cloud Levels
  • Few at 7,500' AGL
Temperature
29°C / 84°F
Dewpoint
18°C / 64°F
Heat Index
29°C / 85°F
Humidity
51%
Altimeter
30" Hg
Pressure
1015.92 hPa